Time;durP1;ratioP1;P1;durP2;ratioP2;P2;SDS_P1;SDS_P2;PMS_P1;PMS_P2;Temp;Humidity;BMP_temperature;BMP_pressure;BME280_temperature;BME280_humidity;BME280_pressure;Samples;Min_cycle;Max_cycle;Signal;HPM_P1;HPM_P2
2021/10/28 00:13:51;;;;;;;20.38;12.70;;;10.10;99.90;;;;;;5093347;28;20098;-70
2021/10/28 00:16:26;;;;;;;19.08;10.98;;;10.00;99.90;;;;;;5093340;28;20020;-71
2021/10/28 00:19:00;;;;;;;18.13;11.40;;;10.00;99.90;;;;;;5077481;28;20416;-72
2021/10/28 00:21:27;;;;;;;20.90;11.35;;;10.00;99.90;;;;;;5093283;28;20012;-70
2021/10/28 00:23:58;;;;;;;16.60;10.85;;;10.00;99.90;;;;;;5094444;28;20032;-70
2021/10/28 00:26:24;;;;;;;18.00;10.75;;;10.00;99.90;;;;;;5061179;28;20024;-69
2021/10/28 00:28:56;;;;;;;13.35;11.00;;;10.00;99.90;;;;;;5059550;28;20093;-70
2021/10/28 00:31:23;;;;;;;17.52;10.55;;;10.00;99.90;;;;;;5093186;28;20032;-68
2021/10/28 00:33:49;;;;;;;18.75;10.50;;;10.00;99.90;;;;;;5076274;28;20375;-70
2021/10/28 00:36:14;;;;;;;18.88;10.18;;;10.00;99.90;;;;;;5092927;28;20078;-69
2021/10/28 00:38:41;;;;;;;12.13;10.52;;;10.10;99.90;;;;;;5075839;28;20028;-69
2021/10/28 00:41:07;;;;;;;15.30;9.73;;;10.10;99.90;;;;;;5076477;28;20506;-70
2021/10/28 00:43:34;;;;;;;16.40;10.02;;;10.10;99.90;;;;;;5092710;28;20052;-70
2021/10/28 00:46:02;;;;;;;14.32;9.63;;;10.10;99.90;;;;;;5075984;28;20131;-69
2021/10/28 00:48:27;;;;;;;13.15;8.77;;;10.10;99.90;;;;;;5092858;28;20389;-70
2021/10/28 00:50:53;;;;;;;18.10;9.93;;;10.10;99.90;;;;;;5092780;28;20028;-73
2021/10/28 00:53:20;;;;;;;15.25;10.32;;;10.10;99.90;;;;;;5094608;28;20090;-72
2021/10/28 00:55:46;;;;;;;14.05;9.57;;;10.00;99.90;;;;;;5092806;28;20099;-73
2021/10/28 00:58:11;;;;;;;12.02;8.85;;;10.10;99.90;;;;;;5092864;28;20054;-72
2021/10/28 01:00:37;;;;;;;17.95;9.68;;;10.20;99.90;;;;;;5075749;28;20024;-73
2021/10/28 01:03:03;;;;;;;13.07;9.77;;;10.00;99.90;;;;;;5092632;28;20024;-73
2021/10/28 01:05:30;;;;;;;15.82;9.45;;;10.00;99.90;;;;;;5092564;28;20036;-72
2021/10/28 01:07:56;;;;;;;16.33;8.55;;;10.00;99.90;;;;;;5092580;28;20031;-72
2021/10/28 01:10:21;;;;;;;13.75;8.57;;;10.00;99.90;;;;;;5092791;28;20032;-72
2021/10/28 01:12:47;;;;;;;13.63;10.05;;;10.00;99.90;;;;;;5092201;28;20032;-73
2021/10/28 01:15:14;;;;;;;12.07;8.75;;;10.00;99.90;;;;;;5092299;28;20052;-74
2021/10/28 01:17:40;;;;;;;13.20;9.32;;;10.00;99.90;;;;;;5094080;28;20024;-72
2021/10/28 01:20:07;;;;;;;15.73;10.40;;;10.00;99.90;;;;;;5092874;28;20020;-73
2021/10/28 01:22:33;;;;;;;15.07;9.25;;;10.00;99.90;;;;;;5093473;28;20024;-71
2021/10/28 01:24:59;;;;;;;14.20;9.50;;;10.00;99.90;;;;;;5092522;28;20370;-74
2021/10/28 01:27:25;;;;;;;13.50;9.48;;;10.00;99.90;;;;;;5092044;28;20020;-70
2021/10/28 01:29:50;;;;;;;17.83;10.43;;;10.00;99.90;;;;;;5092243;28;20107;-70
2021/10/28 01:32:16;;;;;;;17.40;9.65;;;10.00;99.90;;;;;;5093121;28;20040;-68
2021/10/28 01:34:45;;;;;;;16.50;10.63;;;10.10;99.90;;;;;;5074975;28;20047;-69
2021/10/28 01:37:13;;;;;;;13.32;10.15;;;10.10;99.90;;;;;;5092101;28;20028;-70
2021/10/28 01:39:39;;;;;;;15.45;9.25;;;10.00;99.90;;;;;;5093375;28;20017;-70
2021/10/28 01:42:09;;;;;;;12.93;9.48;;;10.00;99.90;;;;;;5092606;28;20020;-69
2021/10/28 01:44:35;;;;;;;16.75;9.45;;;10.10;99.90;;;;;;5093337;28;20386;-71
2021/10/28 01:47:01;;;;;;;19.00;9.57;;;10.10;99.90;;;;;;5092858;28;20057;-69
2021/10/28 01:49:28;;;;;;;19.02;10.43;;;10.00;99.90;;;;;;5076177;28;20479;-69
2021/10/28 01:51:55;;;;;;;16.00;12.48;;;10.00;99.90;;;;;;5075517;28;20025;-69
2021/10/28 01:54:26;;;;;;;16.02;10.25;;;10.00;99.90;;;;;;5058510;28;20081;-69
2021/10/28 01:56:53;;;;;;;13.68;10.20;;;10.00;99.90;;;;;;5074844;28;20016;-69
2021/10/28 01:59:19;;;;;;;15.40;10.15;;;10.00;99.90;;;;;;5074979;28;20024;-69
2021/10/28 02:01:45;;;;;;;16.30;10.15;;;10.00;99.90;;;;;;5075141;28;20082;-70
2021/10/28 02:04:12;;;;;;;15.38;11.05;;;10.00;99.90;;;;;;5091794;28;20016;-70
2021/10/28 02:06:38;;;;;;;17.90;11.30;;;9.90;99.90;;;;;;5058412;28;20021;-67
2021/10/28 02:09:04;;;;;;;14.20;10.45;;;10.00;99.90;;;;;;5091657;28;20024;-73
2021/10/28 02:11:30;;;;;;;16.42;11.18;;;10.00;99.90;;;;;;5091990;28;20388;-74
2021/10/28 02:13:59;;;;;;;15.60;10.45;;;9.90;99.90;;;;;;5092438;28;20052;-72
2021/10/28 02:16:32;;;;;;;18.23;11.23;;;9.90;99.90;;;;;;5092502;28;20441;-73
2021/10/28 02:18:58;;;;;;;20.85;11.95;;;9.90;99.90;;;;;;5092210;28;20036;-73
2021/10/28 02:21:25;;;;;;;24.60;13.20;;;9.90;99.90;;;;;;5076626;28;20020;-74
2021/10/28 02:23:50;;;;;;;18.90;12.63;;;9.90;99.90;;;;;;5095790;28;20020;-72
2021/10/28 02:26:16;;;;;;;19.45;11.98;;;9.90;99.90;;;;;;5095812;28;20380;-73
2021/10/28 02:28:42;;;;;;;20.27;11.32;;;9.90;99.90;;;;;;5079053;28;20043;-70
2021/10/28 02:31:08;;;;;;;21.63;13.07;;;9.90;99.90;;;;;;5079323;28;20024;-72
2021/10/28 02:33:33;;;;;;;18.63;11.15;;;9.90;99.90;;;;;;5096620;28;20109;-73
2021/10/28 02:36:00;;;;;;;19.40;12.13;;;9.90;99.90;;;;;;5078544;28;20497;-74
2021/10/28 02:38:26;;;;;;;16.27;11.70;;;9.80;99.90;;;;;;5062107;28;20024;-71
2021/10/28 02:40:51;;;;;;;18.80;12.32;;;9.90;99.90;;;;;;5078169;28;20020;-72
2021/10/28 02:43:17;;;;;;;20.50;11.82;;;9.80;99.90;;;;;;5095006;28;20111;-72
2021/10/28 02:45:42;;;;;;;16.50;12.25;;;9.80;99.90;;;;;;5061376;28;20367;-73
2021/10/28 02:48:08;;;;;;;18.48;11.90;;;9.80;99.90;;;;;;5078807;28;20024;-70
2021/10/28 02:50:34;;;;;;;16.67;11.00;;;9.80;99.90;;;;;;5078340;28;20073;-73
2021/10/28 02:53:00;;;;;;;24.83;13.63;;;9.70;99.90;;;;;;5077834;28;20036;-72
2021/10/28 02:55:26;;;;;;;24.90;14.38;;;9.70;99.90;;;;;;5078204;28;20462;-74
2021/10/28 02:57:51;;;;;;;18.98;11.35;;;9.70;99.90;;;;;;5095020;28;20035;-71
2021/10/28 03:00:17;;;;;;;19.50;11.52;;;9.80;99.90;;;;;;5061298;28;20474;-72
2021/10/28 03:02:43;;;;;;;21.75;11.27;;;9.70;99.90;;;;;;5094792;28;20028;-71
2021/10/28 03:05:10;;;;;;;16.88;11.70;;;9.70;99.90;;;;;;5096446;28;20056;-71
2021/10/28 03:07:36;;;;;;;19.80;11.88;;;9.70;99.90;;;;;;5094756;28;20431;-71
2021/10/28 03:10:03;;;;;;;22.92;13.80;;;9.60;99.90;;;;;;5095868;28;20103;-71
2021/10/28 03:12:30;;;;;;;21.05;13.23;;;9.60;99.90;;;;;;5077806;28;20032;-71
2021/10/28 03:14:59;;;;;;;18.80;11.88;;;9.70;99.90;;;;;;5061107;28;20403;-71
2021/10/28 03:25:43;;;;;;;16.60;11.18;;;9.60;99.90;;;;;;5094784;28;20039;-71
2021/10/28 03:28:20;;;;;;;15.57;11.33;;;9.60;99.90;;;;;;5094491;28;20032;-70
2021/10/28 03:30:47;;;;;;;19.30;11.13;;;9.60;99.90;;;;;;5094209;28;20024;-69
2021/10/28 03:33:16;;;;;;;17.23;11.52;;;9.50;99.90;;;;;;5093436;28;20498;-70
2021/10/28 03:35:45;;;;;;;16.33;10.35;;;9.50;99.90;;;;;;5077886;28;20082;-70
2021/10/28 03:38:19;;;;;;;18.33;11.55;;;9.50;99.90;;;;;;5077522;28;20601;-71
2021/10/28 04:19:55;;;;;;;17.30;11.15;;;9.40;99.90;;;;;;5094983;28;20042;-72
2021/10/28 04:30:37;;;;;;;18.10;10.65;;;9.40;99.90;;;;;;5093771;28;20085;-73
2021/10/28 04:33:03;;;;;;;14.25;9.00;;;9.40;99.90;;;;;;5094102;28;20474;-71
2021/10/28 04:35:28;;;;;;;16.48;10.43;;;9.40;99.90;;;;;;5076046;28;20031;-71
2021/10/28 04:37:54;;;;;;;13.63;9.00;;;9.40;99.90;;;;;;5075952;28;20123;-72
2021/10/28 04:40:19;;;;;;;13.95;9.38;;;9.40;99.90;;;;;;5076474;28;20043;-71
2021/10/28 04:42:45;;;;;;;19.60;10.68;;;9.40;99.90;;;;;;5076458;28;20371;-72
2021/10/28 04:45:11;;;;;;;19.75;9.52;;;9.40;99.90;;;;;;5059551;28;20020;-71
2021/10/28 04:47:37;;;;;;;12.98;9.23;;;9.40;99.90;;;;;;5092848;28;20554;-72
2021/10/28 04:50:04;;;;;;;14.63;9.20;;;9.40;99.90;;;;;;5075874;28;20051;-70
2021/10/28 04:52:30;;;;;;;15.75;9.93;;;9.40;99.90;;;;;;5092836;28;20032;-72
2021/10/28 04:54:55;;;;;;;14.80;9.77;;;9.40;99.90;;;;;;5092855;28;20026;-73
2021/10/28 04:57:21;;;;;;;12.23;9.00;;;9.40;99.90;;;;;;5093907;28;20028;-72
2021/10/28 04:59:46;;;;;;;13.57;8.80;;;9.40;99.90;;;;;;5094158;28;20048;-71
2021/10/28 05:02:12;;;;;;;12.02;7.75;;;9.40;99.90;;;;;;5092665;28;20036;-72
2021/10/28 05:04:38;;;;;;;12.18;8.10;;;9.40;99.90;;;;;;5076151;28;20028;-72
2021/10/28 05:07:04;;;;;;;14.40;9.13;;;9.40;99.90;;;;;;5076320;28;20059;-72
2021/10/28 05:09:30;;;;;;;19.27;9.20;;;9.30;99.90;;;;;;5092741;28;20024;-72
2021/10/28 05:11:56;;;;;;;14.73;9.52;;;9.40;99.90;;;;;;5075629;28;20491;-71
2021/10/28 05:14:23;;;;;;;12.13;8.73;;;9.30;99.90;;;;;;5075887;28;20435;-73
2021/10/28 05:16:58;;;;;;;15.90;8.70;;;9.30;99.90;;;;;;5092420;28;20063;-73
2021/10/28 05:19:25;;;;;;;12.43;9.05;;;9.30;99.90;;;;;;5093197;28;20501;-74
2021/10/28 05:21:50;;;;;;;14.68;9.75;;;9.30;99.90;;;;;;5075412;28;20043;-74
2021/10/28 05:24:16;;;;;;;14.95;9.35;;;9.30;99.90;;;;;;5092210;28;20024;-73
2021/10/28 05:26:42;;;;;;;13.25;9.57;;;9.30;99.90;;;;;;5075256;28;20107;-73
2021/10/28 05:29:08;;;;;;;17.17;9.40;;;9.30;99.90;;;;;;5075472;28;20421;-74
2021/10/28 05:31:34;;;;;;;10.27;8.10;;;9.30;99.90;;;;;;5092405;28;20031;-73
2021/10/28 05:33:59;;;;;;;18.27;9.52;;;9.30;99.90;;;;;;5093203;28;20152;-72
2021/10/28 05:36:26;;;;;;;13.15;8.95;;;9.20;99.90;;;;;;5075723;28;20026;-72
2021/10/28 05:38:52;;;;;;;13.40;9.27;;;9.30;99.90;;;;;;5093003;28;20032;-73
2021/10/28 05:41:18;;;;;;;16.52;9.00;;;9.30;99.90;;;;;;5077117;28;20023;-72
2021/10/28 05:43:43;;;;;;;13.65;8.50;;;9.20;99.90;;;;;;5077864;28;20123;-73
2021/10/28 05:46:09;;;;;;;16.38;8.38;;;9.20;99.90;;;;;;5094620;28;20035;-74
2021/10/28 05:48:35;;;;;;;16.08;9.18;;;9.20;99.90;;;;;;5078602;28;20031;-74
2021/10/28 05:51:01;;;;;;;12.32;8.10;;;9.20;99.90;;;;;;5078466;28;20036;-73
2021/10/28 05:53:27;;;;;;;15.02;8.48;;;9.20;99.90;;;;;;5092881;28;20123;-74
2021/10/28 05:55:53;;;;;;;16.63;8.32;;;9.20;99.90;;;;;;5076572;28;20047;-73
2021/10/28 05:58:18;;;;;;;13.32;8.00;;;9.10;99.90;;;;;;5096794;28;20533;-74
2021/10/28 06:00:44;;;;;;;12.65;8.23;;;9.20;99.90;;;;;;5096620;28;20057;-74
2021/10/28 06:03:12;;;;;;;9.60;7.63;;;9.10;99.90;;;;;;5079320;28;20032;-71
2021/10/28 06:05:37;;;;;;;12.02;8.15;;;9.10;99.90;;;;;;5097589;28;20024;-73
2021/10/28 06:08:03;;;;;;;9.73;8.05;;;9.10;99.90;;;;;;5079670;28;20501;-72
2021/10/28 06:10:29;;;;;;;14.48;8.32;;;9.00;99.90;;;;;;5080106;28;20089;-70
2021/10/28 06:12:59;;;;;;;10.80;8.25;;;9.00;99.90;;;;;;5096273;28;20077;-75
2021/10/28 06:15:25;;;;;;;15.50;7.53;;;9.00;99.90;;;;;;5096762;28;20641;-73
2021/10/28 06:20:19;;;;;;;12.18;7.65;;;9.00;99.90;;;;;;5098130;28;20036;-73
2021/10/28 06:22:45;;;;;;;13.77;7.63;;;9.00;99.90;;;;;;5096377;28;20505;-74
2021/10/28 06:25:11;;;;;;;9.45;7.68;;;9.00;99.90;;;;;;5078806;28;20024;-72
2021/10/28 06:27:37;;;;;;;13.35;8.15;;;9.00;99.90;;;;;;5078499;28;20026;-73
2021/10/28 06:30:04;;;;;;;14.27;7.95;;;9.00;99.90;;;;;;5078759;28;20027;-74
2021/10/28 06:32:29;;;;;;;12.75;8.52;;;8.90;99.90;;;;;;5078905;28;20028;-73
2021/10/28 06:34:55;;;;;;;14.35;7.78;;;8.90;99.90;;;;;;5095565;28;20550;-74
2021/10/28 06:37:21;;;;;;;12.70;7.18;;;8.90;99.90;;;;;;5078922;28;20016;-73
2021/10/28 06:39:46;;;;;;;9.88;7.07;;;9.00;99.90;;;;;;5078399;28;20028;-74
2021/10/28 06:42:13;;;;;;;15.07;7.38;;;9.00;99.90;;;;;;5078326;28;20046;-73
2021/10/28 06:44:40;;;;;;;9.77;7.78;;;9.00;99.90;;;;;;5078580;28;20496;-75
2021/10/28 06:47:06;;;;;;;12.35;7.35;;;9.00;99.90;;;;;;5095127;28;20093;-74
2021/10/28 06:49:35;;;;;;;9.50;7.18;;;9.00;99.90;;;;;;5078965;28;20432;-76
2021/10/28 06:52:01;;;;;;;11.93;7.65;;;9.00;99.90;;;;;;5095707;28;20028;-76
2021/10/28 06:54:34;;;;;;;10.63;6.82;;;9.00;99.90;;;;;;5095597;28;20032;-78
2021/10/28 07:04:46;;;;;;;;;;;9.10;99.90;;;;;;5096685;28;20024;-77
2021/10/28 07:07:12;;;;;;;13.55;8.18;;;9.10;99.90;;;;;;5095489;28;20017;-77
2021/10/28 07:09:41;;;;;;;11.88;7.80;;;9.20;99.90;;;;;;5095534;28;20078;-75
2021/10/28 07:14:46;;;;;;;10.75;7.63;;;9.10;99.90;;;;;;5095398;28;20451;-75
2021/10/28 07:19:56;;;;;;;10.35;6.75;;;9.20;99.90;;;;;;5095953;28;20063;-76
2021/10/28 07:27:47;;;;;;;10.85;7.53;;;9.90;99.90;;;;;;5097494;28;20074;-74
2021/10/28 07:30:28;;;;;;;11.90;6.97;;;10.50;99.90;;;;;;5097660;28;20103;-77
2021/10/28 08:21:28;;;;;;;5.45;4.95;;;19.80;99.90;;;;;;5095661;28;20056;-70
2021/10/28 08:24:18;;;;;;;7.80;3.95;;;19.90;99.90;;;;;;5093964;28;20025;-73
2021/10/28 08:29:34;;;;;;;9.27;4.40;;;20.40;99.90;;;;;;5093766;28;20085;-74
2021/10/28 08:32:03;;;;;;;5.68;3.53;;;20.80;99.90;;;;;;5094450;28;20078;-72
2021/10/28 08:34:30;;;;;;;7.68;4.28;;;21.00;99.90;;;;;;5093431;28;20043;-73
2021/10/28 08:37:05;;;;;;;4.47;3.55;;;21.50;99.90;;;;;;5093341;28;20017;-73
2021/10/28 08:39:31;;;;;;;5.63;3.70;;;21.80;99.90;;;;;;5093721;28;20532;-72
2021/10/28 08:41:59;;;;;;;7.40;3.80;;;22.10;99.90;;;;;;5076065;28;20017;-74
2021/10/28 08:44:24;;;;;;;6.45;3.72;;;22.30;99.30;;;;;;5093285;28;20489;-75
2021/10/28 08:46:52;;;;;;;8.27;4.18;;;22.60;99.40;;;;;;5093017;28;20032;-74
2021/10/28 08:49:36;;;;;;;4.43;3.63;;;23.10;98.30;;;;;;5093463;28;20024;-74
2021/10/28 09:24:40;;;;;;;5.13;3.55;;;22.60;97.10;;;;;;5094176;28;20031;-75
2021/10/28 09:27:13;;;;;;;7.35;3.60;;;22.70;96.80;;;;;;5094861;28;20033;-74
2021/10/28 09:29:51;;;;;;;6.90;3.75;;;22.70;96.70;;;;;;5093018;28;20027;-72
2021/10/28 09:51:48;;;;;;;;;;;20.90;99.40;;;;;;5096345;28;20043;-76
2021/10/28 09:54:27;;;;;;;8.77;4.82;;;21.00;99.50;;;;;;5093430;28;20268;-76
2021/10/28 09:59:54;;;;;;;6.55;4.93;;;21.20;98.90;;;;;;5093215;28;20079;-74
2021/10/28 10:03:08;;;;;;;7.82;5.03;;;20.00;99.90;;;;;;5075665;28;20036;-73
2021/10/28 10:05:18;;;;;;;6.97;5.75;;;19.10;99.90;;;;;;5087615;28;20020;-73
2021/10/28 10:07:45;;;;;;;10.13;5.30;;;18.10;99.90;;;;;;5076167;28;20098;-72
2021/10/28 10:10:10;;;;;;;8.55;5.20;;;17.30;99.90;;;;;;5093082;28;20052;-73
2021/10/28 10:12:37;;;;;;;8.77;5.55;;;16.70;99.90;;;;;;5092001;28;20071;-72
2021/10/28 10:15:04;;;;;;;7.88;4.88;;;16.30;99.90;;;;;;5092072;28;20113;-73
2021/10/28 10:17:30;;;;;;;6.95;5.20;;;16.00;99.90;;;;;;5075329;28;20028;-73
2021/10/28 10:19:57;;;;;;;7.38;4.90;;;15.80;99.90;;;;;;5092289;28;20099;-69
2021/10/28 10:22:55;;;;;;;8.38;5.75;;;15.60;99.90;;;;;;5092501;28;20493;-70
2021/10/28 10:26:24;;;;;;;8.13;5.10;;;15.50;99.90;;;;;;5090935;28;20506;-72
2021/10/28 10:29:43;;;;;;;7.40;5.22;;;15.30;99.90;;;;;;5011289;28;20100;-71
2021/10/28 11:03:13;;;;;;;7.45;5.47;;;15.20;99.90;;;;;;5092063;28;20083;-74
2021/10/28 11:21:53;;;;;;;8.38;5.50;;;14.90;99.90;;;;;;5095763;28;20093;-71
2021/10/28 11:27:33;;;;;;;7.80;6.22;;;14.90;99.90;;;;;;5095405;28;20027;-70
2021/10/28 11:30:49;;;;;;;12.60;6.10;;;14.90;99.90;;;;;;5081886;28;20174;-70
2021/10/28 11:33:17;;;;;;;8.98;5.93;;;14.90;99.90;;;;;;5094023;28;20047;-73
2021/10/28 12:46:00;;;;;;;9.63;5.97;;;15.70;99.90;;;;;;5093968;28;20393;-72
2021/10/28 12:49:01;;;;;;;8.40;6.03;;;15.80;99.90;;;;;;5078746;28;20024;-72
2021/10/28 13:38:41;;;;;;;7.45;5.03;;;16.00;99.90;;;;;;5095307;28;20032;-73
2021/10/28 13:54:58;;;;;;;18.88;5.57;;;15.90;99.90;;;;;;5093528;28;20064;-76
2021/10/28 14:19:21;;;;;;;6.60;4.45;;;15.90;99.90;;;;;;5097215;28;20040;-74
2021/10/28 15:29:08;;;;;;;6.82;4.00;;;15.50;99.90;;;;;;5093750;28;20528;-69
2021/10/28 15:37:06;;;;;;;5.20;3.45;;;15.40;99.90;;;;;;5095632;28;20093;-72
2021/10/28 15:39:42;;;;;;;4.30;3.33;;;15.40;99.90;;;;;;5094621;28;20115;-70
2021/10/28 15:42:36;;;;;;;7.13;3.50;;;15.30;99.90;;;;;;5095007;28;20102;-71
2021/10/28 15:51:30;;;;;;;20.55;8.07;;;15.10;99.90;;;;;;5095350;28;20509;-69
2021/10/28 16:22:43;;;;;;;5.32;3.78;;;14.30;99.90;;;;;;5095395;28;20055;-77
2021/10/28 16:25:09;;;;;;;8.77;3.80;;;14.10;99.90;;;;;;5077208;28;20032;-76
2021/10/28 16:27:35;;;;;;;5.15;3.78;;;14.10;99.90;;;;;;5093842;28;20016;-77
2021/10/28 16:30:03;;;;;;;6.50;3.85;;;14.00;99.90;;;;;;5094231;28;20046;-73
2021/10/28 16:32:29;;;;;;;6.00;3.90;;;13.90;99.90;;;;;;5096392;28;20048;-74
2021/10/28 16:34:54;;;;;;;5.03;3.53;;;13.80;99.90;;;;;;5094702;28;20028;-74
2021/10/28 16:37:22;;;;;;;9.77;3.75;;;13.80;99.90;;;;;;5094022;28;20073;-77
2021/10/28 16:39:48;;;;;;;6.55;3.72;;;13.70;99.90;;;;;;5094744;28;20103;-73
2021/10/28 16:42:15;;;;;;;6.65;4.00;;;13.70;99.90;;;;;;5076819;28;20150;-70
2021/10/28 16:44:42;;;;;;;8.98;4.13;;;13.60;99.90;;;;;;5093746;28;20479;-72
2021/10/28 16:47:07;;;;;;;4.90;3.40;;;13.50;99.90;;;;;;5093583;28;20039;-74
2021/10/28 16:49:33;;;;;;;6.22;3.50;;;13.50;99.90;;;;;;5094648;28;20032;-76
2021/10/28 16:51:59;;;;;;;6.13;3.70;;;13.50;99.90;;;;;;5094552;28;20031;-72
2021/10/28 16:54:26;;;;;;;6.20;3.50;;;13.50;99.90;;;;;;5093168;28;20387;-73
2021/10/28 16:56:52;;;;;;;6.85;3.85;;;13.40;99.90;;;;;;5076221;28;20028;-70
2021/10/28 16:59:17;;;;;;;5.47;4.05;;;13.40;99.90;;;;;;5093230;28;20028;-70
2021/10/28 17:01:44;;;;;;;8.05;4.22;;;13.40;99.90;;;;;;5075717;28;20402;-70
2021/10/28 17:04:09;;;;;;;6.03;4.00;;;13.30;99.90;;;;;;5092929;28;20040;-72
2021/10/28 17:06:35;;;;;;;6.15;4.20;;;13.30;99.90;;;;;;5093147;28;20039;-71
2021/10/28 17:09:06;;;;;;;6.25;3.67;;;13.30;99.90;;;;;;5093005;28;20024;-70
2021/10/28 17:11:32;;;;;;;6.15;4.40;;;13.20;99.90;;;;;;5094683;28;20031;-70
2021/10/28 17:13:58;;;;;;;5.45;4.22;;;13.20;99.90;;;;;;5076074;28;20483;-71
2021/10/28 17:16:24;;;;;;;6.57;3.55;;;13.20;99.90;;;;;;5076510;28;20020;-68
2021/10/28 17:18:50;;;;;;;11.10;3.70;;;13.10;99.90;;;;;;5094470;28;20475;-69
2021/10/28 17:21:15;;;;;;;5.68;3.67;;;13.10;99.90;;;;;;5075943;28;20028;-71
2021/10/28 17:23:44;;;;;;;8.70;4.05;;;13.10;99.90;;;;;;5094582;28;20104;-73
2021/10/28 17:26:13;;;;;;;6.63;3.78;;;13.00;99.90;;;;;;5093276;28;20047;-72
2021/10/28 17:28:39;;;;;;;7.63;4.38;;;13.00;99.90;;;;;;5077805;28;20013;-71
2021/10/28 17:31:05;;;;;;;6.03;3.60;;;12.90;99.90;;;;;;5095394;28;20032;-70
2021/10/28 17:33:31;;;;;;;6.20;4.63;;;12.90;99.90;;;;;;5094731;28;20470;-70
2021/10/28 17:35:57;;;;;;;6.93;3.65;;;12.90;99.90;;;;;;5094984;28;20044;-71
2021/10/28 17:38:25;;;;;;;5.30;4.07;;;12.80;99.90;;;;;;5100019;28;20024;-70
2021/10/28 17:40:51;;;;;;;9.05;4.10;;;12.80;99.90;;;;;;5096044;28;20016;-72
2021/10/28 17:43:20;;;;;;;13.23;5.43;;;12.80;99.90;;;;;;5093668;28;20032;-71
2021/10/28 17:45:50;;;;;;;6.47;4.15;;;12.70;99.90;;;;;;5076195;28;20025;-69
2021/10/28 17:48:16;;;;;;;12.02;4.60;;;12.70;99.90;;;;;;5093423;28;20032;-71
2021/10/28 17:50:42;;;;;;;5.07;3.95;;;12.60;99.90;;;;;;5093565;28;20474;-72
2021/10/28 17:53:07;;;;;;;5.43;3.70;;;12.60;99.90;;;;;;5095717;28;20039;-71
2021/10/28 17:55:33;;;;;;;9.32;4.82;;;12.60;99.90;;;;;;5098434;28;20025;-70
2021/10/28 17:57:59;;;;;;;6.82;3.97;;;12.60;99.90;;;;;;5097074;28;20089;-70
2021/10/28 18:00:24;;;;;;;6.60;4.65;;;12.60;99.90;;;;;;5097052;28;20474;-72
2021/10/28 18:02:52;;;;;;;6.55;4.18;;;12.50;99.90;;;;;;5098046;28;20021;-71
2021/10/28 18:05:18;;;;;;;8.38;4.55;;;12.50;99.90;;;;;;5097758;28;20463;-70
2021/10/28 18:07:43;;;;;;;7.22;4.28;;;12.50;99.90;;;;;;5098035;28;20032;-74
2021/10/28 18:10:10;;;;;;;6.30;4.10;;;12.40;99.90;;;;;;5097448;28;20028;-70
2021/10/28 18:12:36;;;;;;;5.88;4.03;;;12.40;99.90;;;;;;5097587;28;20028;-73
2021/10/28 18:15:03;;;;;;;4.93;3.85;;;12.30;99.90;;;;;;5096029;28;20494;-70
2021/10/28 18:17:29;;;;;;;8.93;4.10;;;12.40;99.90;;;;;;5079454;28;20111;-72
2021/10/28 18:19:56;;;;;;;6.57;4.28;;;12.30;99.90;;;;;;5097819;28;20048;-74
2021/10/28 18:22:22;;;;;;;6.45;3.90;;;12.30;99.90;;;;;;5096373;28;20028;-72
2021/10/28 18:24:48;;;;;;;5.43;4.00;;;12.30;99.90;;;;;;5079612;28;20126;-70
2021/10/28 18:27:13;;;;;;;5.60;4.25;;;12.30;99.90;;;;;;5079194;28;20020;-71
2021/10/28 18:29:39;;;;;;;7.00;4.68;;;12.30;99.90;;;;;;5097881;28;20401;-72
2021/10/28 18:32:08;;;;;;;6.30;4.28;;;12.30;99.90;;;;;;5079483;28;20442;-73
2021/10/28 18:34:35;;;;;;;6.93;4.30;;;12.30;99.90;;;;;;5079669;28;20027;-70
2021/10/28 18:37:01;;;;;;;9.25;4.38;;;12.30;99.90;;;;;;5096115;28;20107;-70
2021/10/28 18:39:27;;;;;;;7.82;4.32;;;12.20;99.90;;;;;;5097537;28;20078;-75
2021/10/28 18:41:53;;;;;;;8.35;3.97;;;12.20;99.90;;;;;;5080144;28;20024;-77
2021/10/28 18:44:20;;;;;;;6.20;4.25;;;12.20;99.90;;;;;;5098066;28;20020;-75
2021/10/28 18:46:47;;;;;;;9.65;4.30;;;12.20;99.90;;;;;;5079295;28;20474;-75
2021/10/28 18:49:13;;;;;;;7.65;4.63;;;12.20;99.90;;;;;;5079096;28;20028;-74
2021/10/28 18:51:41;;;;;;;5.60;4.65;;;12.20;99.90;;;;;;5079059;28;20050;-79
2021/10/28 18:54:06;;;;;;;9.88;5.15;;;12.20;99.90;;;;;;5097278;28;20495;-74
2021/10/28 18:56:33;;;;;;;7.43;4.57;;;12.20;99.90;;;;;;5096006;28;20074;-74
2021/10/28 18:58:59;;;;;;;7.05;4.90;;;12.10;99.90;;;;;;5095809;28;20112;-75
2021/10/28 19:01:28;;;;;;;6.82;4.65;;;12.10;99.90;;;;;;5096937;28;20051;-75
2021/10/28 19:03:54;;;;;;;7.47;4.32;;;12.10;99.90;;;;;;5078856;28;20397;-75
2021/10/28 19:06:21;;;;;;;6.40;4.13;;;12.00;99.90;;;;;;5095240;28;20082;-71
2021/10/28 19:08:47;;;;;;;7.65;5.10;;;12.00;99.90;;;;;;5096562;28;20024;-71
2021/10/28 19:11:14;;;;;;;8.02;4.47;;;12.00;99.90;;;;;;5096433;28;20025;-71
2021/10/28 19:13:42;;;;;;;7.22;4.60;;;12.00;99.90;;;;;;5096470;28;20036;-69
2021/10/28 19:16:09;;;;;;;5.97;4.57;;;12.00;99.90;;;;;;5095959;28;20081;-69
2021/10/28 19:18:34;;;;;;;7.32;4.93;;;12.00;99.90;;;;;;5097354;28;20031;-70
2021/10/28 19:21:04;;;;;;;5.20;4.18;;;12.00;99.90;;;;;;5095362;28;20028;-70
2021/10/28 19:23:30;;;;;;;9.60;4.57;;;11.90;99.90;;;;;;5079171;28;20413;-73
2021/10/28 19:25:55;;;;;;;10.70;5.30;;;11.90;99.90;;;;;;5096431;28;20513;-70
2021/10/28 19:28:24;;;;;;;8.57;4.75;;;11.90;99.90;;;;;;5096734;28;20016;-70
2021/10/28 19:30:53;;;;;;;6.43;4.55;;;11.80;99.90;;;;;;5096515;28;20051;-71
2021/10/28 19:33:26;;;;;;;7.75;4.82;;;11.80;99.90;;;;;;5096525;28;20055;-69
2021/10/28 19:35:57;;;;;;;6.22;4.55;;;11.80;99.90;;;;;;5095173;28;20406;-69
2021/10/28 19:48:31;;;;;;;7.18;4.55;;;11.60;99.90;;;;;;5096808;28;20123;-71
2021/10/28 19:50:57;;;;;;;7.85;4.38;;;11.60;99.90;;;;;;5095146;28;20035;-71
2021/10/28 19:53:23;;;;;;;6.57;4.35;;;11.60;99.90;;;;;;5096285;28;20478;-70
2021/10/28 19:55:50;;;;;;;5.53;4.53;;;11.60;99.90;;;;;;5096336;28;20028;-72
2021/10/28 19:58:22;;;;;;;7.28;4.70;;;11.50;99.90;;;;;;5094897;28;20073;-70
2021/10/28 20:00:53;;;;;;;7.53;5.30;;;11.50;99.90;;;;;;5095814;28;20038;-71
2021/10/28 20:21:47;;;;;;;9.48;4.82;;;11.40;99.90;;;;;;5094626;28;20043;-71
2021/10/28 20:24:12;;;;;;;11.65;5.05;;;11.40;99.90;;;;;;5078558;28;20032;-72
2021/10/28 20:26:38;;;;;;;8.52;5.10;;;11.40;99.90;;;;;;5094953;28;20020;-70
2021/10/28 20:29:06;;;;;;;6.38;4.97;;;11.40;99.90;;;;;;5077501;28;20473;-71
2021/10/28 20:31:31;;;;;;;6.18;4.38;;;11.30;99.90;;;;;;5077677;28;20081;-70
2021/10/28 20:34:12;;;;;;;6.72;4.63;;;11.30;99.90;;;;;;5094269;28;20056;-71
2021/10/28 20:39:23;;;;;;;8.07;4.80;;;11.30;99.90;;;;;;5095418;28;20059;-72
2021/10/28 20:41:48;;;;;;;8.05;4.68;;;11.30;99.90;;;;;;5094839;28;20471;-72
2021/10/28 20:44:15;;;;;;;7.93;5.47;;;11.20;99.90;;;;;;5095594;28;20024;-71
2021/10/28 20:46:42;;;;;;;9.00;5.20;;;11.20;99.90;;;;;;5094149;28;20107;-71
2021/10/28 20:49:08;;;;;;;6.00;4.70;;;11.20;99.90;;;;;;5095388;28;20034;-74
2021/10/28 20:51:33;;;;;;;8.52;4.90;;;11.20;99.90;;;;;;5093549;28;20109;-74
2021/10/28 20:54:00;;;;;;;11.60;5.60;;;11.20;99.90;;;;;;5095138;28;20036;-71
2021/10/28 20:56:27;;;;;;;6.82;5.90;;;11.10;99.90;;;;;;5093477;28;20028;-71
2021/10/28 20:58:53;;;;;;;10.10;5.47;;;11.10;99.90;;;;;;5094551;28;20028;-71
2021/10/28 21:01:19;;;;;;;5.97;4.63;;;11.10;99.90;;;;;;5093133;28;20035;-71
2021/10/28 21:03:45;;;;;;;5.88;5.15;;;10.90;99.90;;;;;;5094399;28;20027;-73
2021/10/28 21:06:10;;;;;;;9.13;5.25;;;10.90;99.90;;;;;;5094521;28;20052;-73
2021/10/28 21:08:36;;;;;;;7.93;5.95;;;10.80;99.90;;;;;;5094578;28;20096;-71
2021/10/28 21:11:05;;;;;;;10.10;5.85;;;10.70;99.90;;;;;;5094500;28;20096;-71
2021/10/28 21:13:31;;;;;;;7.00;5.60;;;10.70;99.90;;;;;;5092799;28;20028;-72
2021/10/28 21:15:58;;;;;;;9.75;5.80;;;10.70;99.90;;;;;;5076240;28;20486;-73
2021/10/28 21:18:23;;;;;;;7.80;6.13;;;10.60;99.90;;;;;;5076164;28;20024;-70
2021/10/28 21:20:49;;;;;;;8.43;5.40;;;10.60;99.90;;;;;;5093224;28;20042;-71
2021/10/28 21:23:15;;;;;;;8.98;5.28;;;10.60;99.90;;;;;;5093623;28;20028;-70
2021/10/28 21:25:40;;;;;;;10.25;4.80;;;10.60;99.90;;;;;;5094365;28;20024;-71
2021/10/28 21:28:06;;;;;;;8.75;5.22;;;10.60;99.90;;;;;;5077443;28;20036;-70
2021/10/28 21:30:32;;;;;;;9.95;5.43;;;10.50;99.90;;;;;;5080789;28;20016;-72
2021/10/28 21:32:59;;;;;;;5.63;4.90;;;10.50;99.90;;;;;;5097332;28;20036;-76
2021/10/28 21:35:25;;;;;;;8.68;4.68;;;10.50;99.90;;;;;;5082685;28;20471;-74
2021/10/28 21:37:51;;;;;;;9.70;5.55;;;10.50;99.90;;;;;;5096489;28;20031;-76
2021/10/28 21:40:16;;;;;;;7.03;5.00;;;10.50;99.90;;;;;;5082466;28;20023;-76
2021/10/28 21:42:43;;;;;;;11.13;5.57;;;10.50;99.90;;;;;;5094907;28;20032;-75
2021/10/28 21:45:14;;;;;;;7.93;5.55;;;10.50;99.90;;;;;;5094677;28;20104;-74